Terminal Aerodrome Forecast
Issued by NWS Rapid City, SD

Home | Current Version | Previous Version | Graphics & Text | Print | Product List | Glossary On
Versions: 1 2 3 4 5 6 7 8 9 10 11 12
000
FTUS43 KUNR 021120
TAFRAP
TAF
KRAP 021120Z 0212/0312 31006KT P6SM SCT120
     FM021600 34015G25KT P6SM BKN080
     FM022100 35013G23KT P6SM -SHRA OVC050
     FM030300 31006KT P6SM SCT250=

USA.gov is the U.S. government's official web portal to all federal, state and local government web resources and services.